Time;durP1;ratioP1;P1;durP2;ratioP2;P2;SDS_P1;SDS_P2;PMS_P1;PMS_P2;Temp;Humidity;BMP_temperature;BMP_pressure;BME280_temperature;BME280_humidity;BME280_pressure;Samples;Min_cycle;Max_cycle;Signal;HPM_P1;HPM_P2
2021/09/24 00:00:09;;;;;;;2.25;1.10;;;17.60;76.00;;;;;;5008400;28;20114;-75
2021/09/24 00:02:34;;;;;;;2.95;1.20;;;17.60;76.00;;;;;;5007739;28;20029;-74
2021/09/24 00:05:00;;;;;;;2.22;0.98;;;17.60;76.10;;;;;;5007935;28;20045;-75
2021/09/24 00:07:25;;;;;;;3.08;0.90;;;17.60;76.80;;;;;;5008248;28;20388;-74
2021/09/24 00:09:51;;;;;;;3.15;0.95;;;17.70;76.20;;;;;;5008378;28;20079;-75
2021/09/24 00:12:16;;;;;;;2.63;1.30;;;17.60;76.20;;;;;;5008465;28;20097;-75
2021/09/24 00:14:42;;;;;;;2.17;1.00;;;17.60;76.20;;;;;;5007108;28;20018;-76
2021/09/24 00:17:08;;;;;;;4.07;1.40;;;17.60;76.20;;;;;;5007668;28;20038;-75
2021/09/24 00:19:33;;;;;;;1.75;0.90;;;17.60;76.20;;;;;;5009126;28;20040;-75
2021/09/24 00:21:58;;;;;;;1.95;1.20;;;17.60;76.30;;;;;;5006074;28;20058;-75
2021/09/24 00:24:24;;;;;;;2.75;1.20;;;17.60;76.40;;;;;;5007494;28;20036;-75
2021/09/24 00:26:50;;;;;;;2.22;1.00;;;17.60;76.50;;;;;;5007738;28;20064;-75
2021/09/24 00:29:15;;;;;;;2.03;1.00;;;17.50;76.40;;;;;;5007537;28;20037;-75
2021/09/24 00:31:41;;;;;;;2.03;0.93;;;17.60;76.50;;;;;;4988437;28;20026;-75
2021/09/24 00:34:06;;;;;;;3.58;1.20;;;17.60;76.50;;;;;;5006521;28;20053;-76
2021/09/24 00:36:32;;;;;;;3.85;1.15;;;17.60;76.50;;;;;;5007932;28;20094;-76
2021/09/24 00:38:57;;;;;;;3.72;1.33;;;17.60;76.40;;;;;;5006876;28;20121;-76
2021/09/24 00:41:23;;;;;;;2.63;1.10;;;17.60;76.40;;;;;;5008141;28;20448;-76
2021/09/24 00:43:48;;;;;;;3.13;1.40;;;17.50;76.40;;;;;;5007078;28;20022;-76
2021/09/24 00:46:14;;;;;;;2.20;1.02;;;17.50;76.60;;;;;;5007005;28;20026;-76
2021/09/24 00:48:40;;;;;;;3.50;1.35;;;17.50;76.70;;;;;;5007702;28;20502;-76
2021/09/24 00:51:05;;;;;;;3.58;1.17;;;17.50;76.70;;;;;;5006059;28;20022;-76
2021/09/24 00:53:31;;;;;;;4.13;1.40;;;17.50;76.70;;;;;;5007363;28;20111;-76
2021/09/24 00:55:58;;;;;;;2.88;1.20;;;17.50;76.80;;;;;;5006528;28;20034;-76
2021/09/24 00:58:23;;;;;;;3.28;1.20;;;17.50;76.80;;;;;;5005862;28;20029;-76
2021/09/24 01:00:49;;;;;;;3.97;1.48;;;17.50;76.80;;;;;;5006540;28;20467;-76
2021/09/24 01:03:14;;;;;;;4.15;1.67;;;17.50;76.80;;;;;;5006426;28;20038;-76
2021/09/24 01:05:40;;;;;;;2.75;1.20;;;17.50;76.90;;;;;;5007767;28;20026;-77
2021/09/24 01:08:06;;;;;;;2.35;1.25;;;17.50;76.90;;;;;;5007039;28;20057;-77
2021/09/24 01:10:31;;;;;;;4.72;1.60;;;17.50;76.90;;;;;;5007774;28;20468;-77
2021/09/24 01:12:57;;;;;;;3.10;1.25;;;17.50;77.00;;;;;;5007419;28;20026;-76
2021/09/24 01:15:22;;;;;;;3.95;1.40;;;17.40;77.10;;;;;;5006594;28;20026;-76
2021/09/24 01:17:48;;;;;;;2.38;1.20;;;17.40;77.10;;;;;;5007015;28;20018;-76
2021/09/24 01:20:19;;;;;;;3.85;1.30;;;17.40;77.20;;;;;;5006443;28;20029;-78
2021/09/24 01:22:46;;;;;;;3.53;1.42;;;17.40;77.20;;;;;;5005759;28;20365;-75
2021/09/24 01:25:13;;;;;;;3.63;1.30;;;17.40;77.20;;;;;;5004568;28;20034;-77
2021/09/24 01:27:39;;;;;;;7.75;2.03;;;17.40;77.10;;;;;;5005762;28;20061;-76
2021/09/24 01:30:05;;;;;;;3.65;1.45;;;17.40;77.30;;;;;;5007952;28;20054;-77
2021/09/24 01:32:31;;;;;;;3.88;1.40;;;17.40;77.40;;;;;;5003090;28;20506;-76
2021/09/24 01:35:00;;;;;;;4.93;1.33;;;17.40;77.40;;;;;;5007184;28;20054;-76
2021/09/24 01:37:26;;;;;;;2.38;1.27;;;17.40;77.40;;;;;;5006631;28;20075;-76
2021/09/24 01:39:51;;;;;;;2.85;1.40;;;17.40;77.40;;;;;;5008115;28;20028;-76
2021/09/24 01:42:20;;;;;;;3.15;1.40;;;17.40;77.40;;;;;;5007387;28;20018;-76
2021/09/24 01:44:45;;;;;;;5.43;1.38;;;17.40;77.50;;;;;;5006021;28;20033;-76
2021/09/24 01:47:11;;;;;;;2.05;1.25;;;17.40;77.50;;;;;;5006830;28;20030;-76
2021/09/24 01:49:37;;;;;;;4.00;1.20;;;17.40;77.50;;;;;;5007423;28;20030;-76
2021/09/24 01:52:03;;;;;;;3.83;1.50;;;17.40;77.40;;;;;;5007263;28;20076;-78
2021/09/24 01:54:29;;;;;;;2.30;1.23;;;17.40;77.30;;;;;;5005276;28;20026;-76
2021/09/24 01:56:55;;;;;;;4.45;1.30;;;17.40;77.30;;;;;;5006395;28;20018;-76
2021/09/24 01:59:21;;;;;;;3.33;1.45;;;17.40;77.40;;;;;;5007414;28;20033;-76
2021/09/24 02:01:46;;;;;;;3.97;1.65;;;17.40;77.50;;;;;;5005759;28;20022;-76
2021/09/24 02:04:12;;;;;;;4.00;1.45;;;17.30;77.50;;;;;;5006197;28;20091;-75
2021/09/24 02:06:38;;;;;;;5.53;1.80;;;17.30;77.60;;;;;;5007037;28;20033;-76
2021/09/24 02:09:03;;;;;;;2.65;1.30;;;17.30;77.50;;;;;;5008981;28;20485;-75
2021/09/24 02:11:29;;;;;;;3.67;1.45;;;17.30;77.60;;;;;;5010244;28;20026;-75
2021/09/24 02:13:55;;;;;;;2.28;1.20;;;17.30;77.70;;;;;;5009901;28;20120;-75
2021/09/24 02:16:20;;;;;;;2.45;1.50;;;17.30;77.70;;;;;;5010610;28;20053;-75
2021/09/24 02:18:46;;;;;;;4.22;1.60;;;17.30;77.80;;;;;;5008178;28;20038;-76
2021/09/24 02:21:11;;;;;;;3.20;1.63;;;17.20;78.00;;;;;;5005871;28;20776;-76
2021/09/24 02:23:37;;;;;;;2.83;1.70;;;17.20;78.10;;;;;;5009407;28;20082;-76
2021/09/24 02:26:04;;;;;;;3.63;1.55;;;17.20;78.10;;;;;;5009547;28;20037;-76
2021/09/24 02:28:30;;;;;;;2.88;1.42;;;17.30;78.10;;;;;;5009457;28;20075;-76
2021/09/24 02:30:56;;;;;;;3.53;1.67;;;17.20;78.10;;;;;;5010248;28;20059;-76
2021/09/24 02:33:21;;;;;;;2.70;1.40;;;17.20;78.20;;;;;;5009722;28;20082;-75
2021/09/24 02:35:47;;;;;;;4.45;1.60;;;17.20;78.30;;;;;;5009749;28;20073;-77
2021/09/24 02:38:13;;;;;;;2.60;1.60;;;17.20;78.30;;;;;;5009139;28;20109;-76
2021/09/24 02:40:38;;;;;;;2.90;1.70;;;17.20;78.30;;;;;;5009915;28;20033;-77
2021/09/24 02:43:04;;;;;;;4.95;2.00;;;17.20;78.30;;;;;;5009604;28;20022;-76
2021/09/24 02:45:30;;;;;;;4.85;1.55;;;17.20;78.30;;;;;;5008959;28;20079;-77
2021/09/24 02:47:55;;;;;;;3.42;1.30;;;17.30;78.30;;;;;;5009166;28;20108;-75
2021/09/24 02:50:21;;;;;;;2.10;1.15;;;17.30;78.30;;;;;;5009878;28;20219;-76
2021/09/24 02:52:47;;;;;;;4.15;1.67;;;17.30;78.20;;;;;;5009703;28;20030;-76
2021/09/24 02:55:14;;;;;;;3.30;1.63;;;17.30;78.20;;;;;;5008973;28;20078;-75
2021/09/24 02:57:41;;;;;;;3.10;1.55;;;17.30;78.30;;;;;;5008728;28;20040;-75
2021/09/24 03:00:08;;;;;;;3.00;1.70;;;17.30;78.40;;;;;;5009734;28;20495;-75
2021/09/24 03:02:35;;;;;;;4.95;1.95;;;17.20;78.40;;;;;;5004494;28;20103;-75
2021/09/24 03:05:03;;;;;;;2.70;1.65;;;17.20;78.40;;;;;;5006390;28;20491;-75
2021/09/24 03:07:28;;;;;;;3.72;1.75;;;17.20;78.40;;;;;;5008306;28;20036;-75
2021/09/24 03:09:54;;;;;;;4.70;2.00;;;17.30;78.50;;;;;;5009557;28;20038;-75
2021/09/24 03:12:19;;;;;;;4.05;2.15;;;17.20;78.40;;;;;;5007604;28;20430;-76
2021/09/24 03:14:45;;;;;;;3.28;1.88;;;17.20;78.50;;;;;;5008460;28;20033;-76
2021/09/24 03:17:10;;;;;;;4.93;2.13;;;17.20;78.50;;;;;;5008947;28;20030;-76
2021/09/24 03:19:36;;;;;;;6.97;2.75;;;17.20;78.80;;;;;;5008066;28;20464;-76
2021/09/24 03:22:02;;;;;;;5.35;2.70;;;17.10;78.80;;;;;;5009358;28;20357;-76
2021/09/24 03:24:27;;;;;;;5.45;2.40;;;17.10;79.00;;;;;;5008968;28;20041;-76
2021/09/24 03:26:53;;;;;;;6.22;2.92;;;17.10;79.20;;;;;;5008682;28;20022;-76
2021/09/24 03:29:18;;;;;;;6.13;3.13;;;17.10;79.20;;;;;;5009095;28;20544;-76
2021/09/24 03:31:44;;;;;;;5.68;3.05;;;17.00;79.50;;;;;;5008170;28;20571;-75
2021/09/24 03:34:10;;;;;;;3.95;2.10;;;16.90;79.80;;;;;;5007903;28;20045;-75
2021/09/24 03:36:36;;;;;;;4.45;2.42;;;16.90;79.90;;;;;;5009456;28;20066;-76
2021/09/24 03:39:10;;;;;;;2.83;1.85;;;17.00;79.90;;;;;;5007870;28;20044;-76
2021/09/24 03:41:35;;;;;;;3.95;2.50;;;16.90;80.00;;;;;;5003553;28;20517;-74
2021/09/24 03:44:01;;;;;;;5.35;2.88;;;16.90;79.90;;;;;;5008615;28;20148;-74
2021/09/24 03:46:26;;;;;;;5.35;3.10;;;16.90;79.90;;;;;;5008618;28;20063;-75
2021/09/24 03:48:52;;;;;;;6.35;3.13;;;16.90;80.00;;;;;;5007991;28;20079;-75
2021/09/24 03:51:17;;;;;;;4.68;2.80;;;16.90;80.10;;;;;;5008865;28;20102;-76
2021/09/24 03:53:43;;;;;;;7.53;3.50;;;16.90;80.00;;;;;;5006759;28;20897;-76
2021/09/24 03:56:09;;;;;;;6.55;3.42;;;16.90;80.20;;;;;;5008932;28;20036;-76
2021/09/24 03:58:34;;;;;;;5.82;3.92;;;16.80;80.10;;;;;;5007187;28;20040;-75
2021/09/24 04:01:00;;;;;;;5.43;3.42;;;16.80;80.40;;;;;;5008054;28;20416;-75
2021/09/24 04:03:25;;;;;;;10.57;6.35;;;16.80;80.40;;;;;;5007619;28;20476;-76
2021/09/24 04:05:51;;;;;;;6.38;4.53;;;16.80;80.70;;;;;;5008208;28;20038;-76
2021/09/24 04:08:16;;;;;;;10.38;5.80;;;16.70;80.80;;;;;;5008309;28;20097;-76
2021/09/24 04:10:42;;;;;;;7.57;5.30;;;16.80;80.90;;;;;;5008345;28;20443;-75
2021/09/24 04:13:08;;;;;;;6.82;4.68;;;16.70;80.90;;;;;;5007799;28;20079;-76
2021/09/24 04:15:33;;;;;;;4.65;3.70;;;16.70;81.00;;;;;;5007225;28;20033;-75
2021/09/24 04:17:59;;;;;;;8.65;6.05;;;16.70;81.00;;;;;;5007456;28;20018;-75
2021/09/24 04:20:25;;;;;;;6.82;4.95;;;16.70;81.00;;;;;;5007978;28;20045;-75
2021/09/24 04:22:50;;;;;;;8.82;6.13;;;16.70;81.10;;;;;;5008148;28;20034;-75
2021/09/24 04:25:16;;;;;;;7.93;6.07;;;16.70;81.20;;;;;;5007385;28;20080;-75
2021/09/24 04:27:41;;;;;;;10.95;7.18;;;16.70;81.40;;;;;;5007785;28;20090;-75
2021/09/24 04:30:08;;;;;;;6.55;5.28;;;16.70;81.40;;;;;;5007606;28;20025;-75
2021/09/24 04:32:34;;;;;;;12.43;8.10;;;16.70;81.50;;;;;;5007721;28;20115;-75
2021/09/24 04:35:01;;;;;;;14.30;9.63;;;16.70;81.50;;;;;;5007663;28;20051;-75
2021/09/24 04:37:26;;;;;;;14.50;9.50;;;16.60;82.00;;;;;;5006112;28;20380;-75
2021/09/24 04:39:52;;;;;;;13.32;7.82;;;16.60;82.20;;;;;;5007213;28;20051;-76
2021/09/24 04:42:17;;;;;;;11.07;8.35;;;16.60;82.20;;;;;;5000699;28;20029;-75
2021/09/24 04:44:43;;;;;;;12.95;9.43;;;16.60;82.30;;;;;;5006171;28;20132;-75
2021/09/24 04:47:08;;;;;;;10.95;7.28;;;16.60;82.40;;;;;;5006308;28;20026;-75
2021/09/24 04:49:34;;;;;;;12.48;7.93;;;16.50;82.40;;;;;;5007895;28;20108;-75
2021/09/24 04:52:00;;;;;;;16.85;12.10;;;16.50;82.40;;;;;;5008166;28;20399;-75
2021/09/24 04:54:25;;;;;;;11.60;8.07;;;16.50;82.70;;;;;;5007710;28;20491;-75
2021/09/24 04:56:51;;;;;;;13.35;9.02;;;16.50;82.90;;;;;;5007170;28;20187;-75
2021/09/24 04:59:16;;;;;;;16.42;11.23;;;16.50;82.90;;;;;;5006543;28;20022;-75
2021/09/24 05:01:42;;;;;;;18.60;10.95;;;16.50;83.20;;;;;;5031786;28;20046;-75
2021/09/24 05:04:08;;;;;;;16.02;11.07;;;16.40;83.90;;;;;;5006047;28;20026;-76
2021/09/24 05:06:34;;;;;;;12.70;9.05;;;16.40;83.20;;;;;;5005288;28;20018;-74
2021/09/24 05:08:59;;;;;;;17.70;10.88;;;16.40;83.30;;;;;;5007985;28;20026;-75
2021/09/24 05:11:25;;;;;;;13.05;8.98;;;16.50;83.50;;;;;;5003370;28;20015;-75
2021/09/24 05:13:50;;;;;;;17.10;10.63;;;16.50;83.40;;;;;;5003340;28;20023;-75
2021/09/24 05:16:16;;;;;;;17.40;10.45;;;16.50;83.40;;;;;;5003167;28;20648;-75
2021/09/24 05:18:43;;;;;;;13.30;9.10;;;16.60;83.30;;;;;;5001451;28;20022;-75
2021/09/24 05:21:09;;;;;;;14.07;9.15;;;16.60;83.90;;;;;;5000652;28;20165;-75
2021/09/24 05:23:34;;;;;;;37.38;16.80;;;16.70;83.20;;;;;;5004321;28;20113;-76
2021/09/24 05:26:00;;;;;;;25.17;13.40;;;16.70;83.40;;;;;;4997017;28;20037;-75
2021/09/24 05:28:25;;;;;;;18.52;11.45;;;16.60;83.70;;;;;;4996150;28;20022;-75
2021/09/24 05:30:51;;;;;;;15.88;9.70;;;16.60;83.80;;;;;;4997473;28;20080;-75
2021/09/24 05:33:16;;;;;;;14.80;9.07;;;16.60;83.70;;;;;;5001466;28;20025;-76
2021/09/24 05:35:42;;;;;;;26.55;13.10;;;16.70;83.70;;;;;;4998923;28;20384;-76
2021/09/24 05:38:08;;;;;;;21.83;10.80;;;16.70;83.70;;;;;;5042907;28;20029;-76
2021/09/24 05:40:33;;;;;;;18.52;9.43;;;16.70;83.80;;;;;;5013635;28;20553;-75
2021/09/24 05:42:59;;;;;;;26.00;13.68;;;16.70;83.70;;;;;;5022065;28;20033;-76
2021/09/24 05:45:24;;;;;;;21.33;13.07;;;16.70;84.10;;;;;;5009902;28;20026;-76
2021/09/24 05:47:50;;;;;;;23.85;12.85;;;16.70;84.30;;;;;;5004589;28;20389;-75
2021/09/24 05:50:15;;;;;;;23.55;13.32;;;16.70;84.30;;;;;;5021728;28;20068;-76
2021/09/24 05:52:47;;;;;;;27.55;11.15;;;16.70;84.60;;;;;;5009654;28;20053;-80
2021/09/24 05:55:14;;;;;;;18.05;10.23;;;16.70;84.60;;;;;;5008486;28;20034;-76
2021/09/24 05:57:40;;;;;;;19.65;11.07;;;16.80;84.60;;;;;;5011358;28;20099;-76
2021/09/24 06:00:09;;;;;;;35.78;15.05;;;16.80;84.40;;;;;;5061560;28;20026;-76
2021/09/24 06:02:35;;;;;;;30.48;14.35;;;16.80;84.70;;;;;;5013366;28;20022;-77
2021/09/24 06:05:00;;;;;;;17.48;10.18;;;16.80;84.80;;;;;;5034613;28;20085;-77
2021/09/24 06:07:26;;;;;;;22.38;11.50;;;16.80;84.80;;;;;;5028740;28;20163;-77
2021/09/24 06:09:52;;;;;;;30.88;14.27;;;16.90;84.80;;;;;;5092828;28;20373;-77
2021/09/24 06:12:18;;;;;;;25.08;14.45;;;16.90;84.90;;;;;;4995354;28;20041;-77
2021/09/24 06:14:44;;;;;;;25.77;12.05;;;16.90;85.00;;;;;;5009801;28;20026;-78
2021/09/24 06:17:11;;;;;;;19.88;10.63;;;16.90;85.00;;;;;;5010145;28;20071;-77
2021/09/24 06:19:38;;;;;;;30.75;16.25;;;16.90;85.00;;;;;;5010327;28;20029;-77
2021/09/24 06:22:04;;;;;;;20.63;11.90;;;17.00;85.20;;;;;;4994374;28;20533;-77
2021/09/24 06:24:30;;;;;;;19.88;12.15;;;17.00;85.30;;;;;;5010100;28;20546;-76
2021/09/24 06:26:56;;;;;;;26.00;13.80;;;17.00;85.40;;;;;;5009172;28;20029;-77
2021/09/24 06:29:21;;;;;;;24.40;12.65;;;17.00;85.50;;;;;;5009665;28;20440;-76
2021/09/24 06:31:47;;;;;;;23.05;12.10;;;17.00;85.40;;;;;;5006242;28;20109;-77
2021/09/24 06:34:12;;;;;;;23.80;13.93;;;17.10;85.40;;;;;;5010550;28;20022;-76
2021/09/24 06:36:38;;;;;;;30.25;17.30;;;17.10;85.60;;;;;;5021399;28;20072;-76
2021/09/24 06:39:04;;;;;;;27.23;14.52;;;17.10;85.70;;;;;;5009166;28;20037;-77
2021/09/24 06:41:29;;;;;;;23.73;14.35;;;17.10;86.00;;;;;;5008421;28;20022;-77
2021/09/24 06:43:55;;;;;;;16.23;9.88;;;17.10;86.80;;;;;;5009474;28;20041;-77
2021/09/24 06:46:21;;;;;;;27.20;13.75;;;17.10;86.10;;;;;;5001932;28;20480;-77
2021/09/24 06:48:46;;;;;;;26.85;13.73;;;17.10;86.10;;;;;;5000955;28;20046;-76
2021/09/24 06:51:12;;;;;;;14.23;8.35;;;17.10;86.10;;;;;;5005348;28;20476;-76
2021/09/24 06:53:38;;;;;;;22.65;12.88;;;17.20;86.00;;;;;;5001936;28;20425;-77
2021/09/24 06:56:03;;;;;;;18.95;11.13;;;17.20;86.00;;;;;;5001179;28;20109;-77
2021/09/24 06:58:29;;;;;;;25.98;16.15;;;17.20;86.00;;;;;;5004372;28;20101;-77
2021/09/24 07:00:54;;;;;;;34.22;17.50;;;17.20;86.10;;;;;;5002416;28;20115;-77
2021/09/24 07:03:20;;;;;;;33.20;18.23;;;17.20;86.40;;;;;;5006226;28;20059;-76
2021/09/24 07:05:46;;;;;;;18.55;10.80;;;17.20;86.50;;;;;;5000577;28;20451;-77
2021/09/24 07:08:11;;;;;;;19.45;11.68;;;17.20;86.50;;;;;;4998682;28;20057;-77
2021/09/24 07:10:37;;;;;;;28.05;16.23;;;17.20;86.50;;;;;;5006717;28;20022;-76
2021/09/24 07:13:02;;;;;;;27.05;16.20;;;17.20;86.60;;;;;;5002804;28;20042;-77
2021/09/24 07:15:28;;;;;;;24.77;14.85;;;17.20;86.90;;;;;;5005374;28;20030;-77
2021/09/24 07:17:54;;;;;;;27.23;15.10;;;17.20;86.90;;;;;;4994488;28;20022;-76
2021/09/24 07:20:21;;;;;;;20.20;11.75;;;17.20;86.90;;;;;;5003148;28;20026;-76
2021/09/24 07:22:47;;;;;;;24.30;13.85;;;17.20;86.90;;;;;;5005317;28;20029;-77
2021/09/24 07:25:12;;;;;;;22.15;12.82;;;17.20;86.90;;;;;;5001922;28;20034;-85
2021/09/24 07:27:38;;;;;;;31.92;18.33;;;17.30;86.80;;;;;;5001671;28;20026;-77
2021/09/24 07:30:07;;;;;;;20.55;12.50;;;17.30;86.90;;;;;;5009485;28;20414;-77
2021/09/24 07:32:33;;;;;;;20.98;12.85;;;17.30;87.00;;;;;;5007861;28;20033;-78
2021/09/24 07:34:58;;;;;;;23.55;13.48;;;17.30;86.90;;;;;;5005024;28;20030;-77
2021/09/24 07:37:26;;;;;;;22.52;12.05;;;17.30;86.70;;;;;;4998539;28;20030;-76
2021/09/24 07:39:52;;;;;;;17.60;10.35;;;17.40;86.70;;;;;;4996271;28;20022;-76
2021/09/24 07:42:17;;;;;;;21.73;12.15;;;17.40;86.60;;;;;;5004553;28;20056;-77
2021/09/24 07:44:43;;;;;;;21.83;12.90;;;17.40;86.40;;;;;;5001206;28;20083;-78
2021/09/24 07:47:09;;;;;;;19.55;11.73;;;17.50;86.40;;;;;;5001947;28;20022;-77
2021/09/24 07:49:35;;;;;;;20.90;11.25;;;17.50;86.30;;;;;;5018743;28;20034;-77
2021/09/24 07:52:00;;;;;;;17.20;9.20;;;17.50;86.20;;;;;;5005061;28;20177;-78
2021/09/24 07:54:26;;;;;;;19.67;12.07;;;17.60;86.20;;;;;;5016395;28;20019;-77
2021/09/24 07:56:52;;;;;;;21.17;13.43;;;17.60;86.00;;;;;;5000445;28;20468;-78
2021/09/24 07:59:19;;;;;;;21.83;12.93;;;17.60;86.00;;;;;;4999685;28;20032;-78
2021/09/24 08:01:45;;;;;;;21.10;11.85;;;17.70;85.90;;;;;;5005909;28;20087;-78
2021/09/24 08:04:10;;;;;;;20.52;11.77;;;17.70;85.80;;;;;;5007704;28;20437;-77
2021/09/24 08:06:36;;;;;;;20.25;12.23;;;17.70;86.20;;;;;;5107653;27;20034;-77
2021/09/24 08:09:03;;;;;;;32.45;17.63;;;17.70;85.60;;;;;;5001614;28;20368;-78
2021/09/24 08:11:28;;;;;;;21.10;12.63;;;17.70;85.70;;;;;;4996681;28;20069;-78
2021/09/24 08:13:54;;;;;;;23.92;13.70;;;17.70;85.70;;;;;;5001683;28;20046;-77
2021/09/24 08:16:20;;;;;;;17.60;10.35;;;17.80;85.70;;;;;;5012919;28;20041;-76
2021/09/24 08:18:46;;;;;;;24.73;14.45;;;17.80;85.60;;;;;;5003146;28;20018;-77
2021/09/24 08:21:11;;;;;;;26.88;14.43;;;17.80;85.50;;;;;;5001751;28;20034;-79
2021/09/24 08:23:38;;;;;;;24.80;15.00;;;17.90;85.40;;;;;;5004821;28;20105;-79
2021/09/24 08:26:05;;;;;;;32.85;17.63;;;17.90;85.30;;;;;;5019566;28;20021;-78
2021/09/24 08:28:31;;;;;;;32.67;17.45;;;17.90;85.30;;;;;;5045461;28;20030;-75
2021/09/24 08:30:57;;;;;;;25.08;14.15;;;17.90;85.30;;;;;;5010179;28;20509;-76
2021/09/24 08:33:23;;;;;;;32.85;17.13;;;18.00;85.30;;;;;;5005521;28;20026;-77
2021/09/24 08:35:49;;;;;;;29.83;16.50;;;18.00;85.20;;;;;;5006346;28;20022;-78
2021/09/24 08:38:14;;;;;;;33.08;17.10;;;18.00;85.10;;;;;;5004978;28;20029;-78
2021/09/24 08:40:41;;;;;;;33.75;16.92;;;18.00;85.10;;;;;;5007470;28;20044;-79
2021/09/24 08:43:10;;;;;;;33.08;17.67;;;18.00;85.10;;;;;;5012408;28;20030;-79
2021/09/24 08:45:36;;;;;;;38.90;19.38;;;18.00;85.10;;;;;;5002767;28;20698;-79
2021/09/24 08:48:05;;;;;;;27.80;14.98;;;18.00;85.00;;;;;;5004434;28;20026;-78
2021/09/24 08:50:33;;;;;;;33.58;19.60;;;18.10;85.00;;;;;;5016362;28;20122;-78
2021/09/24 08:52:59;;;;;;;27.52;15.20;;;18.10;85.10;;;;;;5008568;28;20022;-78
2021/09/24 08:55:26;;;;;;;37.33;18.77;;;18.10;85.00;;;;;;5009393;28;20121;-77
2021/09/24 08:57:52;;;;;;;22.83;12.15;;;18.20;84.90;;;;;;5008592;28;20053;-76
2021/09/24 09:00:19;;;;;;;34.58;16.90;;;18.20;84.70;;;;;;5004340;28;20084;-78
2021/09/24 09:03:10;;;;;;;33.55;17.15;;;18.30;84.50;;;;;;5006139;28;20049;-78
2021/09/24 09:05:39;;;;;;;31.55;17.27;;;18.50;84.50;;;;;;5003097;28;20038;-79
2021/09/24 09:08:15;;;;;;;35.22;19.40;;;18.50;84.20;;;;;;5004343;28;20079;-76
2021/09/24 09:11:08;;;;;;;32.65;17.77;;;18.70;83.90;;;;;;5002294;28;20030;-80
2021/09/24 09:13:35;;;;;;;;;;;18.70;83.80;;;;;;5016359;28;20733;-79
2021/09/24 09:16:04;;;;;;;26.90;14.07;;;18.80;83.60;;;;;;5014130;28;19917;-79
2021/09/24 09:18:34;;;;;;;29.88;16.73;;;18.80;83.50;;;;;;5014824;28;20033;-77
2021/09/24 09:21:02;;;;;;;25.83;14.95;;;18.90;83.50;;;;;;5009495;28;20112;-77
2021/09/24 09:23:29;;;;;;;25.27;14.50;;;18.90;83.20;;;;;;5011055;28;20091;-77
2021/09/24 09:25:59;;;;;;;25.25;14.25;;;18.90;83.10;;;;;;5010665;28;20045;-78
2021/09/24 09:28:36;;;;;;;26.35;15.63;;;19.00;83.10;;;;;;5007101;28;20509;-77
2021/09/24 09:31:14;;;;;;;26.08;15.68;;;19.00;82.90;;;;;;4998942;28;20051;-77
2021/09/24 09:33:40;;;;;;;20.85;13.68;;;19.10;82.80;;;;;;5008016;28;20033;-76
2021/09/24 09:36:05;;;;;;;20.33;13.18;;;19.10;82.50;;;;;;5010283;28;20064;-76
2021/09/24 09:38:41;;;;;;;22.35;14.20;;;19.20;82.40;;;;;;5014143;28;20030;-76
2021/09/24 09:41:11;;;;;;;22.48;14.40;;;19.20;82.20;;;;;;5001430;28;20476;-76
2021/09/24 09:43:43;;;;;;;22.00;14.07;;;19.20;82.00;;;;;;5010594;28;20033;-76
2021/09/24 09:46:16;;;;;;;23.20;15.57;;;19.20;81.90;;;;;;5014368;28;20070;-76
2021/09/24 09:48:42;;;;;;;21.20;14.02;;;19.20;81.70;;;;;;5014916;28;20476;-76
2021/09/24 09:51:08;;;;;;;19.38;12.65;;;19.20;81.50;;;;;;5014176;28;20057;-76
2021/09/24 09:53:34;;;;;;;21.00;14.35;;;19.30;81.50;;;;;;5036207;28;20112;-76
2021/09/24 09:56:05;;;;;;;20.83;13.70;;;19.30;81.30;;;;;;5009977;28;20121;-76
2021/09/24 09:58:33;;;;;;;17.60;11.70;;;19.30;81.20;;;;;;5009279;28;20057;-76
2021/09/24 10:01:18;;;;;;;21.60;14.98;;;19.40;81.10;;;;;;5039171;28;20034;-76
2021/09/24 10:03:54;;;;;;;16.65;12.25;;;19.50;80.90;;;;;;5012370;28;20029;-76
2021/09/24 10:06:21;;;;;;;12.32;8.65;;;19.50;80.60;;;;;;5008258;28;20453;-76
2021/09/24 10:08:51;;;;;;;16.55;11.73;;;19.60;80.50;;;;;;5011457;28;20029;-76
2021/09/24 10:11:19;;;;;;;15.23;10.48;;;19.70;80.20;;;;;;5014389;28;20034;-75
2021/09/24 10:13:51;;;;;;;12.10;8.90;;;19.80;79.90;;;;;;5007835;28;20030;-76
2021/09/24 10:16:17;;;;;;;18.30;12.35;;;20.00;79.60;;;;;;5011368;28;20369;-77
2021/09/24 10:18:42;;;;;;;17.98;13.18;;;20.00;79.10;;;;;;5013761;28;20026;-76
2021/09/24 10:21:08;;;;;;;11.98;9.65;;;20.00;78.20;;;;;;5014411;28;20488;-76
2021/09/24 10:23:34;;;;;;;14.60;11.35;;;20.00;78.10;;;;;;5014722;28;20022;-78
2021/09/24 10:26:06;;;;;;;12.45;9.73;;;20.10;78.00;;;;;;5012923;28;20072;-77
2021/09/24 10:28:35;;;;;;;12.80;10.00;;;20.10;77.80;;;;;;5012745;28;20026;-76
2021/09/24 10:31:02;;;;;;;17.75;12.30;;;20.30;77.60;;;;;;5005422;28;20037;-78
2021/09/24 10:33:46;;;;;;;12.85;9.70;;;20.40;77.00;;;;;;5010360;28;20476;-78
2021/09/24 10:36:36;;;;;;;9.85;8.57;;;20.50;76.90;;;;;;5017662;28;20022;-78
2021/09/24 10:39:04;;;;;;;10.48;8.27;;;20.50;76.60;;;;;;5008151;28;20048;-77
2021/09/24 10:41:29;;;;;;;12.80;10.23;;;20.60;76.50;;;;;;4993511;28;20119;-78
2021/09/24 10:43:58;;;;;;;9.18;7.57;;;20.80;75.90;;;;;;5013606;28;20492;-77
2021/09/24 10:46:23;;;;;;;9.68;7.43;;;20.80;75.40;;;;;;5013174;28;20557;-78
2021/09/24 10:49:12;;;;;;;11.13;9.27;;;20.90;75.00;;;;;;5009018;28;20018;-77
2021/09/24 10:51:44;;;;;;;12.50;10.43;;;21.00;74.40;;;;;;5007576;28;20079;-78
2021/09/24 10:54:18;;;;;;;13.48;10.88;;;21.10;73.80;;;;;;5009327;28;20022;-78
2021/09/24 10:57:00;;;;;;;10.30;8.57;;;21.10;73.30;;;;;;5007389;28;20014;-78
2021/09/24 10:59:29;;;;;;;10.10;8.40;;;21.10;73.40;;;;;;5006690;28;20018;-76
2021/09/24 11:01:57;;;;;;;8.85;7.57;;;21.20;73.20;;;;;;5006545;28;20037;-76
2021/09/24 11:04:43;;;;;;;8.80;7.35;;;21.30;73.20;;;;;;5002424;28;20034;-77
2021/09/24 11:07:10;;;;;;;10.18;7.78;;;21.40;72.70;;;;;;5004800;28;20041;-80
2021/09/24 11:09:53;;;;;;;10.65;8.52;;;21.50;72.30;;;;;;5007880;28;20026;-78
2021/09/24 11:12:19;;;;;;;10.55;8.75;;;21.60;71.70;;;;;;5008492;28;20029;-78
2021/09/24 11:14:45;;;;;;;10.05;7.35;;;21.50;71.60;;;;;;5007434;28;20022;-81
2021/09/24 11:17:12;;;;;;;9.13;7.88;;;21.50;71.60;;;;;;5012350;28;20061;-77
2021/09/24 11:19:45;;;;;;;9.52;7.20;;;21.40;71.50;;;;;;5012102;28;20045;-77
2021/09/24 11:22:13;;;;;;;11.55;9.38;;;21.40;71.50;;;;;;5009633;28;20026;-77
2021/09/24 11:25:04;;;;;;;11.88;9.35;;;21.40;71.10;;;;;;5012536;28;20153;-76
2021/09/24 11:27:39;;;;;;;10.38;8.95;;;21.30;70.70;;;;;;5010834;28;20117;-77
2021/09/24 11:30:05;;;;;;;12.38;9.23;;;21.30;70.70;;;;;;5010442;28;20034;-76
2021/09/24 11:32:41;;;;;;;10.23;7.75;;;21.20;70.60;;;;;;5011276;28;20029;-78
2021/09/24 11:35:11;;;;;;;10.80;8.40;;;21.20;70.90;;;;;;5013594;28;20034;-77
2021/09/24 11:37:40;;;;;;;9.65;7.35;;;21.20;70.70;;;;;;5029920;27;20094;-76
2021/09/24 11:40:10;;;;;;;8.43;7.43;;;21.30;70.50;;;;;;5018746;28;20036;-77
2021/09/24 11:42:41;;;;;;;7.13;6.05;;;21.30;70.60;;;;;;5047060;28;20523;-76
2021/09/24 11:45:09;;;;;;;9.00;7.47;;;21.30;70.60;;;;;;5010061;28;20041;-76
2021/09/24 11:47:41;;;;;;;9.48;7.38;;;21.40;70.50;;;;;;5018275;28;20033;-76
2021/09/24 11:50:09;;;;;;;13.13;8.88;;;21.50;70.40;;;;;;5041273;28;20024;-76
2021/09/24 11:52:51;;;;;;;9.80;7.38;;;21.50;70.10;;;;;;5035664;28;20087;-77
2021/09/24 11:55:23;;;;;;;10.68;8.27;;;21.60;69.80;;;;;;5034593;28;20026;-76
2021/09/24 11:58:02;;;;;;;9.65;7.25;;;21.60;69.70;;;;;;5001509;28;20026;-77
2021/09/24 12:00:35;;;;;;;8.60;6.75;;;21.70;69.70;;;;;;5010205;28;20543;-78
2021/09/24 12:03:19;;;;;;;8.82;7.82;;;21.70;69.40;;;;;;5001069;28;20033;-76
2021/09/24 12:06:06;;;;;;;10.23;8.70;;;21.80;69.30;;;;;;5013411;28;20034;-75
2021/09/24 12:08:40;;;;;;;9.43;8.07;;;21.80;69.00;;;;;;5022238;28;20120;-76
2021/09/24 12:11:05;;;;;;;9.75;7.65;;;21.90;69.00;;;;;;5019519;28;20037;-75
2021/09/24 12:13:41;;;;;;;8.70;7.40;;;22.00;68.90;;;;;;5025091;28;20028;-76
2021/09/24 12:16:14;;;;;;;9.13;7.95;;;22.10;68.70;;;;;;5013233;28;20079;-74
2021/09/24 12:18:54;;;;;;;10.85;9.70;;;22.30;68.20;;;;;;5007895;28;20049;-74
2021/09/24 12:21:48;;;;;;;9.68;8.70;;;22.30;68.30;;;;;;5010557;28;20097;-75
2021/09/24 12:24:20;;;;;;;10.18;8.13;;;22.40;67.70;;;;;;5014942;28;20037;-76
2021/09/24 12:26:49;;;;;;;10.03;8.20;;;22.40;67.60;;;;;;5009514;28;20172;-75
2021/09/24 12:29:23;;;;;;;13.52;10.18;;;22.40;67.30;;;;;;5035725;28;20265;-76
2021/09/24 12:31:50;;;;;;;9.77;8.60;;;22.30;67.50;;;;;;5012978;28;20034;-77
2021/09/24 12:34:21;;;;;;;10.07;8.95;;;22.20;67.50;;;;;;5017546;28;20040;-76
2021/09/24 12:37:01;;;;;;;9.15;6.95;;;22.20;67.40;;;;;;5019344;28;20045;-76
2021/09/24 12:39:29;;;;;;;9.07;8.00;;;22.10;67.60;;;;;;5006385;28;20026;-76